Time;durP1;ratioP1;P1;durP2;ratioP2;P2;SDS_P1;SDS_P2;PMS_P1;PMS_P2;Temp;Humidity;BMP_temperature;BMP_pressure;BME280_temperature;BME280_humidity;BME280_pressure;Samples;Min_cycle;Max_cycle;Signal;HPM_P1;HPM_P2
2022/08/17 00:01:26;;;;;;;10.20;4.33;;;;;;;17.18;65.98;93504.72;5036911;28;20198;-67
2022/08/17 00:04:11;;;;;;;3.87;3.57;;;;;;;17.43;65.42;93505.69;5037226;28;20198;-67
2022/08/17 00:06:56;;;;;;;3.50;3.13;;;;;;;17.37;65.79;93512.56;5048737;28;20198;-67
2022/08/17 00:09:40;;;;;;;5.20;3.10;;;;;;;17.41;65.54;93517.66;5046458;28;20198;-67
2022/08/17 00:12:24;;;;;;;3.60;3.30;;;;;;;17.11;66.32;93520.00;5046967;28;20304;-67
2022/08/17 00:15:10;;;;;;;3.90;3.50;;;;;;;16.99;67.07;93513.84;5051672;28;20214;-67
2022/08/17 00:17:54;;;;;;;4.77;3.43;;;;;;;16.68;68.72;93513.97;5050138;28;20241;-67
2022/08/17 00:20:38;;;;;;;5.30;3.60;;;;;;;16.24;70.81;93507.84;5049317;28;20203;-67
2022/08/17 00:23:23;;;;;;;4.00;3.43;;;;;;;16.45;70.02;93506.63;5052451;28;20267;-67
2022/08/17 00:26:09;;;;;;;5.27;3.60;;;;;;;16.62;68.81;93500.28;5043916;28;20206;-68
2022/08/17 00:28:53;;;;;;;4.73;3.63;;;;;;;16.72;67.93;93494.34;5049470;28;20198;-67
2022/08/17 00:31:37;;;;;;;5.07;3.93;;;;;;;16.77;67.96;93487.47;5035045;28;20555;-67
2022/08/17 00:34:21;;;;;;;5.50;4.17;;;;;;;16.76;67.78;93483.19;5031478;28;20218;-67
2022/08/17 00:37:05;;;;;;;5.67;3.60;;;;;;;16.76;67.58;93478.25;5053099;28;20289;-67
2022/08/17 00:39:49;;;;;;;5.77;4.13;;;;;;;16.75;67.60;93484.56;5053788;28;20206;-67
2022/08/17 00:42:34;;;;;;;4.77;3.87;;;;;;;16.72;67.95;93491.53;5049901;28;20194;-67
2022/08/17 00:45:19;;;;;;;7.13;3.80;;;;;;;16.68;68.24;93480.00;5047487;28;20209;-66
2022/08/17 00:48:03;;;;;;;5.33;4.00;;;;;;;16.65;68.29;93481.31;5046968;28;20202;-66
2022/08/17 00:51:02;;;;;;;4.10;3.60;;;;;;;16.64;68.26;93482.69;5055227;28;20225;-66
2022/08/17 00:53:59;;;;;;;4.20;3.80;;;;;;;16.54;68.57;93478.03;5043792;28;20222;-66
2022/08/17 00:56:57;;;;;;;4.63;3.80;;;;;;;16.31;70.31;93484.13;5039228;28;20306;-66
2022/08/17 00:59:49;;;;;;;3.50;3.20;;;;;;;16.27;70.29;93492.44;5039647;28;20293;-66
2022/08/17 01:02:38;;;;;;;4.97;4.47;;;;;;;16.35;69.42;93492.06;5047403;28;20210;-66
2022/08/17 01:05:26;;;;;;;4.30;3.90;;;;;;;16.35;69.61;93484.31;5046698;28;20245;-66
2022/08/17 01:08:14;;;;;;;4.30;3.90;;;;;;;16.58;69.38;93488.78;5046576;28;20203;-66
2022/08/17 01:11:04;;;;;;;4.27;3.97;;;;;;;16.73;69.29;93481.63;5043256;28;20285;-66
2022/08/17 01:13:48;;;;;;;4.20;3.80;;;;;;;16.76;68.25;93480.34;5042558;28;20202;-66
2022/08/17 01:16:32;;;;;;;4.80;4.00;;;;;;;16.55;69.44;93479.47;5043375;28;20207;-66
2022/08/17 01:19:19;;;;;;;4.73;3.80;;;;;;;16.51;69.84;93482.16;5048445;28;20210;-66
2022/08/17 01:22:09;;;;;;;4.07;3.53;;;;;;;16.38;69.89;93476.63;5031899;28;20206;-66
2022/08/17 01:25:04;;;;;;;4.77;4.20;;;;;;;16.09;71.76;93471.84;5028886;28;20198;-66
2022/08/17 01:27:49;;;;;;;7.40;4.37;;;;;;;16.23;72.06;93472.47;5046877;28;20229;-66
2022/08/17 01:30:34;;;;;;;5.37;4.87;;;;;;;16.65;72.18;93470.72;5050449;28;20202;-66
2022/08/17 01:33:18;;;;;;;4.80;4.37;;;;;;;16.74;70.91;93477.44;5042150;28;20203;-66
2022/08/17 01:36:05;;;;;;;9.93;4.10;;;;;;;16.07;72.01;93471.75;5049065;28;20226;-66
2022/08/17 01:38:49;;;;;;;5.03;4.53;;;;;;;15.91;73.34;93473.88;5051646;28;20212;-66
2022/08/17 01:41:36;;;;;;;4.33;3.93;;;;;;;16.07;72.71;93471.75;5051583;28;20659;-66
2022/08/17 01:44:22;;;;;;;6.40;4.07;;;;;;;16.04;72.83;93473.78;5047515;28;20209;-68
2022/08/17 01:47:06;;;;;;;5.73;4.20;;;;;;;15.82;74.40;93466.41;5051571;28;20218;-66
2022/08/17 01:49:50;;;;;;;5.93;4.67;;;;;;;15.85;74.93;93471.50;5051463;28;20202;-66
2022/08/17 01:52:35;;;;;;;4.97;4.53;;;;;;;16.15;74.58;93469.28;5051574;28;20281;-66
2022/08/17 01:55:24;;;;;;;7.67;4.63;;;;;;;16.16;73.10;93467.94;5049394;28;20222;-68
2022/08/17 01:58:08;;;;;;;5.23;4.57;;;;;;;15.61;75.08;93465.50;5051878;28;20203;-66
2022/08/17 02:00:53;;;;;;;4.20;3.80;;;;;;;15.82;74.90;93469.22;5050190;28;20248;-66
2022/08/17 02:03:38;;;;;;;7.87;4.57;;;;;;;15.84;74.56;93466.50;5037679;28;20226;-66
2022/08/17 02:06:22;;;;;;;7.90;4.73;;;;;;;15.77;74.46;93457.75;5049014;28;20284;-66
2022/08/17 02:09:06;;;;;;;5.50;4.90;;;;;;;15.72;75.48;93467.41;5043920;28;20206;-66
2022/08/17 02:11:51;;;;;;;7.27;5.30;;;;;;;15.80;74.94;93460.69;5046469;28;20282;-66
2022/08/17 02:14:36;;;;;;;5.47;4.60;;;;;;;15.76;74.53;93453.47;5050232;28;20231;-66
2022/08/17 02:17:20;;;;;;;5.10;4.20;;;;;;;15.65;75.01;93454.38;5044188;28;20206;-67
2022/08/17 02:20:06;;;;;;;5.10;4.60;;;;;;;15.65;76.87;93451.56;5056810;28;20285;-66
2022/08/17 02:22:50;;;;;;;6.47;4.67;;;;;;;15.63;76.33;93445.09;5047144;28;20229;-66
2022/08/17 02:25:37;;;;;;;5.10;4.53;;;;;;;15.58;77.02;93441.34;5050658;28;20209;-66
2022/08/17 02:28:21;;;;;;;10.60;5.00;;;;;;;15.53;78.07;93439.72;5043986;28;20202;-66
2022/08/17 02:31:08;;;;;;;7.47;5.33;;;;;;;15.57;79.22;93436.34;5051780;28;20273;-66
2022/08/17 02:33:52;;;;;;;5.27;4.70;;;;;;;15.59;77.95;93440.00;5042548;28;20652;-66
2022/08/17 02:36:37;;;;;;;5.50;5.00;;;;;;;15.53;78.49;93427.69;5047918;28;20723;-66
2022/08/17 02:39:21;;;;;;;8.90;5.23;;;;;;;15.61;79.34;93428.06;5047091;28;20210;-66
2022/08/17 02:42:06;;;;;;;5.70;5.20;;;;;;;15.67;78.69;93420.59;5050007;28;20198;-66
2022/08/17 02:44:50;;;;;;;5.33;4.83;;;;;;;15.52;78.25;93429.03;5036135;28;20265;-67
2022/08/17 02:47:34;;;;;;;5.93;4.63;;;;;;;15.43;78.15;93425.09;5044153;28;20199;-66
2022/08/17 02:50:22;;;;;;;7.90;5.13;;;;;;;15.24;79.48;93431.31;5050681;28;20229;-66
2022/08/17 02:53:06;;;;;;;5.30;4.80;;;;;;;15.27;78.62;93444.13;5048309;28;20667;-66
2022/08/17 02:55:51;;;;;;;5.63;4.23;;;;;;;14.91;79.05;93435.44;5029456;28;20341;-66
2022/08/17 02:58:35;;;;;;;6.13;5.63;;;;;;;14.64;84.60;93423.53;5036280;28;20256;-66
2022/08/17 03:01:19;;;;;;;5.73;5.23;;;;;;;14.96;84.01;93419.41;5048677;28;20710;-66
2022/08/17 03:04:03;;;;;;;7.00;5.63;;;;;;;15.27;84.47;93422.28;5045666;28;20679;-68
2022/08/17 03:06:48;;;;;;;6.93;6.17;;;;;;;15.90;80.27;93425.13;5032460;28;20198;-66
2022/08/17 03:09:32;;;;;;;9.43;5.23;;;;;;;15.84;77.33;93421.28;5048982;28;20659;-66
2022/08/17 03:12:16;;;;;;;7.03;5.37;;;;;;;15.73;77.46;93423.69;5049192;28;20207;-66
2022/08/17 03:15:05;;;;;;;8.13;5.00;;;;;;;15.60;76.98;93416.03;5051753;28;20779;-66
2022/08/17 03:17:49;;;;;;;9.13;5.60;;;;;;;15.28;78.94;93417.38;5050707;28;20208;-66
2022/08/17 03:20:35;;;;;;;5.13;4.73;;;;;;;15.04;79.89;93424.72;5048845;28;20845;-66
2022/08/17 03:23:20;;;;;;;7.33;5.13;;;;;;;15.09;79.62;93420.72;5052435;28;20825;-66
2022/08/17 03:26:04;;;;;;;5.87;5.03;;;;;;;15.05;80.06;93426.19;5053655;28;20198;-66
2022/08/17 03:28:49;;;;;;;6.77;4.90;;;;;;;14.98;80.25;93437.19;5055435;28;20690;-66
2022/08/17 03:31:33;;;;;;;11.23;5.10;;;;;;;15.19;79.68;93432.47;5043373;28;20285;-66
2022/08/17 03:34:18;;;;;;;5.53;5.03;;;;;;;15.30;79.14;93440.06;5041575;28;20297;-66
2022/08/17 03:37:02;;;;;;;8.57;5.73;;;;;;;15.38;79.33;93446.78;5049991;28;20199;-66
2022/08/17 03:39:46;;;;;;;6.77;5.60;;;;;;;15.38;78.32;93446.78;5042547;28;20206;-66
2022/08/17 03:42:30;;;;;;;5.93;5.33;;;;;;;15.44;77.88;93451.97;5041590;28;20206;-66
2022/08/17 03:56:40;;;;;;;10.43;5.60;;;;;;;14.95;79.25;93457.44;5052139;28;20189;-66
2022/08/17 03:57:31;;;;;;;5.17;4.67;;;;;;;14.94;79.17;93445.44;5046719;28;20225;-66
2022/08/17 04:00:16;;;;;;;6.63;5.40;;;;;;;14.90;79.84;93433.25;5043428;28;20232;-66
2022/08/17 04:03:01;;;;;;;5.73;5.23;;;;;;;14.98;79.11;93445.66;5051724;28;20203;-66
2022/08/17 04:05:46;;;;;;;8.17;5.10;;;;;;;14.95;79.12;93435.63;5036972;28;20562;-66
2022/08/17 04:08:30;;;;;;;7.33;4.90;;;;;;;14.95;78.78;93435.63;5047132;28;20229;-66
2022/08/17 04:11:14;;;;;;;7.57;4.80;;;;;;;14.78;79.46;93439.03;5053571;28;20577;-66
2022/08/17 04:13:58;;;;;;;6.13;4.87;;;;;;;14.65;80.75;93437.00;5053908;28;20209;-66
2022/08/17 04:16:43;;;;;;;5.10;4.60;;;;;;;14.83;79.85;93440.69;5045698;28;20206;-66
2022/08/17 04:19:27;;;;;;;7.20;4.83;;;;;;;14.85;80.07;93440.78;5055223;28;20194;-66
2022/08/17 04:22:11;;;;;;;7.57;5.17;;;;;;;14.95;79.30;93435.63;5043049;28;20198;-66
2022/08/17 04:24:55;;;;;;;4.93;4.53;;;;;;;14.93;78.96;93429.91;5047997;28;20512;-66
2022/08/17 04:27:39;;;;;;;5.27;4.80;;;;;;;14.75;79.74;93434.66;5046646;28;20210;-66
2022/08/17 04:30:25;;;;;;;8.37;5.53;;;;;;;14.86;79.29;93436.63;5050061;28;20261;-66
2022/08/17 04:33:18;;;;;;;6.07;4.93;;;;;;;14.84;79.61;93442.16;5048537;28;20288;-66
2022/08/17 04:36:04;;;;;;;5.87;5.10;;;;;;;15.09;79.67;93444.03;5052387;28;20699;-66
2022/08/17 04:38:48;;;;;;;5.37;4.73;;;;;;;15.30;78.27;93451.34;5048129;28;20420;-66
2022/08/17 04:44:35;;;;;;;5.90;5.27;;;;;;;15.02;78.79;93455.66;5049281;28;20219;-66
2022/08/17 04:47:20;;;;;;;6.40;4.93;;;;;;;14.92;79.95;93459.47;5047019;28;20207;-67
2022/08/17 04:50:04;;;;;;;5.60;5.10;;;;;;;15.18;78.44;93462.78;5046486;28;20209;-66
2022/08/17 04:52:48;;;;;;;6.23;5.07;;;;;;;15.18;78.82;93456.44;5048422;28;20202;-66
2022/08/17 04:55:33;;;;;;;5.63;5.13;;;;;;;15.40;77.39;93465.91;5055711;28;20225;-66
2022/08/17 04:58:18;;;;;;;6.73;5.43;;;;;;;15.71;75.92;93460.31;5045858;28;20575;-66
2022/08/17 05:01:04;;;;;;;6.30;5.10;;;;;;;15.92;75.42;93469.69;5048798;28;20211;-66
2022/08/17 05:03:49;;;;;;;5.13;4.40;;;;;;;16.24;73.49;93471.09;5037709;28;20233;-66
2022/08/17 05:06:33;;;;;;;5.43;4.87;;;;;;;16.27;73.64;93464.16;5041175;28;20619;-66
2022/08/17 05:09:18;;;;;;;6.20;4.43;;;;;;;16.19;73.50;93466.63;5038289;28;20721;-66
2022/08/17 05:12:02;;;;;;;5.33;4.83;;;;;;;16.58;72.34;93466.16;5046080;28;20206;-66
2022/08/17 05:14:46;;;;;;;5.23;4.23;;;;;;;16.77;72.37;93465.56;5053662;28;20218;-66
2022/08/17 05:17:31;;;;;;;6.77;4.47;;;;;;;17.15;70.43;93457.91;5050211;28;20934;-67
2022/08/17 05:20:15;;;;;;;9.97;4.90;;;;;;;17.38;69.36;93468.72;5053554;28;20274;-68
2022/08/17 05:23:03;;;;;;;5.90;3.83;;;;;;;17.58;69.36;93460.28;5055927;28;20542;-71
2022/08/17 05:25:50;;;;;;;6.73;4.33;;;;;;;17.81;69.14;93467.50;5050508;28;20217;-71
2022/08/17 05:28:34;;;;;;;5.00;4.53;;;;;;;17.99;69.10;93465.34;5059036;28;20205;-72
2022/08/17 05:31:18;;;;;;;4.07;3.77;;;;;;;18.19;68.28;93465.34;5036994;28;20213;-71
2022/08/17 05:34:02;;;;;;;4.90;3.97;;;;;;;18.36;68.44;93466.66;5057515;28;20198;-71
2022/08/17 05:36:46;;;;;;;3.90;3.60;;;;;;;18.65;66.91;93480.44;5051264;28;20624;-72
2022/08/17 05:39:31;;;;;;;5.00;3.73;;;;;;;18.52;68.11;93478.53;5054466;28;20202;-72
2022/08/17 05:42:19;;;;;;;4.23;3.80;;;;;;;18.88;66.54;93471.31;5037376;28;20206;-71
2022/08/17 05:45:04;;;;;;;5.97;4.23;;;;;;;19.07;66.34;93460.56;5049994;28;20205;-69
2022/08/17 05:47:48;;;;;;;6.27;4.00;;;;;;;19.42;65.51;93471.59;5038876;28;20281;-68
2022/08/17 05:50:48;;;;;;;5.07;4.60;;;;;;;19.91;64.23;93456.03;5054950;28;20666;-68
2022/08/17 05:53:47;;;;;;;4.43;3.80;;;;;;;20.22;63.12;93469.72;5043321;28;20576;-68
2022/08/17 05:56:37;;;;;;;5.30;4.23;;;;;;;19.84;65.02;93480.00;5050998;28;20593;-68
2022/08/17 05:59:30;;;;;;;5.23;4.33;;;;;;;19.82;65.55;93482.75;5043062;28;20253;-68
2022/08/17 06:02:14;;;;;;;4.83;4.33;;;;;;;20.17;64.21;93476.72;5048577;28;20582;-68
2022/08/17 06:05:17;;;;;;;7.60;4.10;;;;;;;20.85;61.80;93483.56;5049351;28;20584;-69
2022/08/17 06:08:20;;;;;;;5.03;4.43;;;;;;;21.21;61.18;93483.78;5047500;28;20209;-69
2022/08/17 06:11:41;;;;;;;5.40;4.40;;;;;;;21.26;61.08;93490.31;5037162;28;20202;-69
2022/08/17 06:14:51;;;;;;;7.93;4.17;;;;;;;21.01;62.18;93488.94;5040741;28;20198;-69
2022/08/17 06:17:36;;;;;;;5.23;4.03;;;;;;;21.10;60.71;93493.47;5057298;28;20205;-70
2022/08/17 06:20:21;;;;;;;6.90;3.47;;;;;;;21.32;58.45;93494.03;5052654;28;20190;-70
2022/08/17 06:23:13;;;;;;;4.60;3.53;;;;;;;21.51;57.73;93498.03;5037718;28;20210;-69
2022/08/17 06:26:07;;;;;;;5.15;4.00;;;;;;;21.37;58.56;93506.25;5026091;28;20240;-69
2022/08/17 06:28:58;;;;;;;4.90;4.13;;;;;;;21.67;58.55;93509.09;5029981;28;20747;-70
2022/08/17 06:31:42;;;;;;;4.18;3.70;;;;;;;21.27;59.65;93520.97;5041770;28;20198;-68
2022/08/17 06:34:27;;;;;;;5.43;3.63;;;;;;;21.38;59.76;93525.53;5051150;28;20202;-70
2022/08/17 06:37:30;;;;;;;5.47;4.45;;;;;;;21.48;59.95;93539.28;5051224;28;20292;-69
2022/08/17 06:41:01;;;;;;;5.72;3.72;;;;;;;21.14;58.31;93529.88;5045933;28;20198;-70
2022/08/17 06:44:05;;;;;;;6.20;3.90;;;;;;;21.43;57.26;93514.22;5038456;28;20317;-69
2022/08/17 06:46:59;;;;;;;4.07;3.67;;;;;;;21.98;56.30;93524.78;5035404;28;20202;-70
2022/08/17 06:50:26;;;;;;;4.03;3.25;;;;;;;21.82;55.45;93536.53;5047925;28;20289;-70
2022/08/17 06:53:30;;;;;;;4.55;3.83;;;;;;;21.78;56.20;93547.88;4986629;28;20200;-68
2022/08/17 06:56:46;;;;;;;5.07;3.33;;;;;;;22.30;54.21;93542.63;5056317;28;20288;-69
2022/08/17 06:59:44;;;;;;;3.70;3.40;;;;;;;22.35;54.78;93549.88;5047840;28;20233;-70
2022/08/17 07:02:44;;;;;;;4.88;3.40;;;;;;;22.31;54.59;93557.63;5027824;28;20269;-71
2022/08/17 07:05:39;;;;;;;7.93;3.90;;;;;;;22.15;54.49;93572.28;5053053;28;20293;-69
2022/08/17 07:08:33;;;;;;;3.58;3.28;;;;;;;22.52;54.15;93568.09;5071216;28;20230;-70
2022/08/17 07:11:24;;;;;;;5.50;3.78;;;;;;;22.67;53.71;93566.97;5070888;28;20231;-70
2022/08/17 07:14:11;;;;;;;5.45;3.15;;;;;;;23.12;53.28;93565.00;5048385;28;20700;-70
2022/08/17 07:16:57;;;;;;;3.30;3.00;;;;;;;23.27;52.69;93569.56;5041901;28;20206;-69
2022/08/17 07:19:44;;;;;;;4.03;3.42;;;;;;;22.97;52.89;93581.88;5044303;28;20588;-72
2022/08/17 07:22:37;;;;;;;4.07;3.45;;;;;;;23.55;51.52;93567.25;5028437;28;20248;-68
2022/08/17 07:25:22;;;;;;;3.47;3.17;;;;;;;23.15;52.19;93567.19;5043655;28;20194;-69
2022/08/17 07:28:06;;;;;;;7.10;3.85;;;;;;;23.68;50.98;93574.63;5037701;28;20202;-68
2022/08/17 07:30:53;;;;;;;4.47;3.85;;;;;;;24.08;49.90;93590.97;5048973;28;20203;-71
2022/08/17 07:33:38;;;;;;;8.73;3.83;;;;;;;24.62;49.44;93578.91;5041664;28;20202;-69
2022/08/17 07:36:24;;;;;;;5.18;3.85;;;;;;;24.52;49.01;93573.75;5039473;28;20226;-71
2022/08/17 07:39:09;;;;;;;8.32;4.38;;;;;;;24.96;48.96;93580.06;5050183;28;20293;-69
2022/08/17 07:42:01;;;;;;;9.60;4.15;;;;;;;24.46;49.00;93571.50;5047160;28;20198;-70
2022/08/17 07:44:53;;;;;;;5.75;3.65;;;;;;;24.55;49.52;93578.09;5037365;28;20353;-71
2022/08/17 07:50:39;;;;;;;9.48;3.88;;;;;;;25.23;47.75;93575.38;5050292;28;20261;-72
2022/08/17 07:53:25;;;;;;;5.95;3.83;;;;;;;25.25;46.57;93572.50;5043504;28;20198;-70
2022/08/17 07:56:09;;;;;;;6.63;3.30;;;;;;;25.56;46.45;93567.06;5054841;28;20226;-71
2022/08/17 07:59:22;;;;;;;10.13;3.30;;;;;;;25.84;46.21;93567.34;5050221;28;20198;-72
2022/08/17 08:02:37;;;;;;;26.77;5.10;;;;;;;24.78;46.98;93581.97;5046488;28;20655;-69
2022/08/17 08:05:26;;;;;;;5.55;3.40;;;;;;;25.47;46.67;93579.91;5043216;28;20323;-71
2022/08/17 08:08:27;;;;;;;4.10;3.50;;;;;;;25.92;44.94;93578.91;5062930;28;20615;-69
2022/08/17 08:11:26;;;;;;;6.43;3.67;;;;;;;25.64;45.93;93590.13;5046712;28;20198;-72
2022/08/17 08:14:24;;;;;;;5.75;3.47;;;;;;;25.42;46.23;93575.53;5026192;28;20205;-71
2022/08/17 08:17:09;;;;;;;9.38;3.75;;;;;;;26.14;45.48;93569.72;5050317;28;20210;-71
2022/08/17 08:19:53;;;;;;;4.63;3.30;;;;;;;26.51;44.30;93570.72;5055813;28;20252;-70
2022/08/17 08:22:55;;;;;;;4.80;3.92;;;;;;;25.85;45.08;93574.53;5068512;28;20197;-74
2022/08/17 08:25:45;;;;;;;5.30;3.45;;;;;;;26.26;44.89;93563.38;5039381;28;20194;-71
2022/08/17 08:28:46;;;;;;;6.68;3.85;;;;;;;27.08;43.87;93571.03;5024940;28;20226;-71
2022/08/17 08:31:39;;;;;;;3.53;3.22;;;;;;;27.09;42.56;93570.31;5038965;28;20201;-71
2022/08/17 08:35:05;;;;;;;4.68;3.63;;;;;;;27.58;42.33;93579.09;5043102;28;20284;-71
2022/08/17 08:38:06;;;;;;;7.35;3.58;;;;;;;27.01;42.31;93583.94;5038287;28;20339;-73
2022/08/17 08:41:18;;;;;;;5.55;3.80;;;;;;;26.36;44.42;93583.53;5045691;28;20194;-71
2022/08/17 08:44:28;;;;;;;4.25;3.88;;;;;;;26.88;42.82;93583.88;5034941;28;20658;-72
2022/08/17 08:47:47;;;;;;;3.63;3.28;;;;;;;27.40;41.37;93582.63;5033161;28;21203;-71
2022/08/17 08:50:57;;;;;;;3.95;3.30;;;;;;;27.95;41.54;93582.75;5049371;28;20658;-72
2022/08/17 08:53:52;;;;;;;3.65;3.35;;;;;;;27.88;40.41;93587.06;5055506;28;20203;-74
2022/08/17 08:56:43;;;;;;;4.55;3.40;;;;;;;27.90;40.98;93587.06;5043799;28;20219;-72
2022/08/17 08:59:47;;;;;;;3.65;3.28;;;;;;;27.16;42.30;93576.78;5044870;28;20202;-72
2022/08/17 09:03:08;;;;;;;4.90;3.25;;;;;;;28.03;40.69;93579.84;5037452;28;20264;-72
2022/08/17 09:06:05;;;;;;;4.88;3.58;;;;;;;28.09;41.40;93588.47;5038704;28;20210;-72
2022/08/17 09:08:58;;;;;;;3.45;3.15;;;;;;;28.09;40.67;93600.00;5029584;28;20207;-72
2022/08/17 09:11:45;;;;;;;6.60;3.80;;;;;;;28.52;39.73;93592.78;5052179;28;20646;-72
2022/08/17 09:14:43;;;;;;;5.13;3.90;;;;;;;28.72;39.54;93583.38;5042794;28;20203;-72
2022/08/17 09:17:38;;;;;;;7.57;3.53;;;;;;;28.38;39.74;93584.19;5041143;28;20218;-71
2022/08/17 09:20:28;;;;;;;4.13;3.35;;;;;;;28.38;39.75;93587.06;5041075;28;20209;-71
2022/08/17 09:23:24;;;;;;;7.63;3.80;;;;;;;28.02;40.21;93589.94;5048206;28;20202;-72
2022/08/17 09:26:19;;;;;;;6.00;3.65;;;;;;;28.47;40.18;93579.84;5051185;28;20565;-73
2022/08/17 09:29:12;;;;;;;5.07;3.67;;;;;;;28.20;41.24;93584.22;5043836;28;20198;-73
2022/08/17 09:32:02;;;;;;;7.32;3.60;;;;;;;28.00;40.40;93587.06;5053827;28;21205;-73
2022/08/17 09:34:55;;;;;;;5.68;3.25;;;;;;;28.61;39.54;93587.03;5048630;28;20226;-72
2022/08/17 09:37:57;;;;;;;5.68;3.25;;;;;;;28.89;39.26;93587.69;5052770;28;20285;-71
2022/08/17 09:40:46;;;;;;;3.25;3.05;;;;;;;29.44;38.11;93583.91;5046565;28;20242;-74
2022/08/17 09:43:52;;;;;;;4.32;3.30;;;;;;;29.72;38.45;93589.50;5048620;28;20252;-72
2022/08/17 09:46:42;;;;;;;5.90;3.60;;;;;;;29.51;37.42;93582.41;5047124;28;20194;-72
2022/08/17 09:49:36;;;;;;;6.70;3.95;;;;;;;29.48;38.35;93601.19;5041521;28;20230;-73
2022/08/17 09:52:24;;;;;;;4.68;3.60;;;;;;;30.03;37.91;93599.44;5061552;28;20616;-72
2022/08/17 09:55:09;;;;;;;4.18;3.25;;;;;;;29.08;37.83;93597.00;5047811;28;20222;-71
2022/08/17 09:58:11;;;;;;;3.45;3.15;;;;;;;29.86;37.44;93592.31;5052410;28;20242;-74
2022/08/17 10:01:16;;;;;;;6.70;3.45;;;;;;;30.11;36.06;93602.28;5040933;28;20212;-74
2022/08/17 10:04:12;;;;;;;5.20;3.47;;;;;;;29.64;37.36;93606.88;5040002;28;20621;-74
2022/08/17 10:07:08;;;;;;;4.45;3.28;;;;;;;29.37;38.94;93614.25;5051760;28;20574;-74
2022/08/17 10:10:11;;;;;;;4.50;3.05;;;;;;;29.40;39.01;93612.78;5051528;28;20210;-72
2022/08/17 10:13:04;;;;;;;4.85;3.42;;;;;;;28.18;39.68;93601.50;5041859;28;20202;-73
2022/08/17 10:16:06;;;;;;;4.78;3.17;;;;;;;28.35;40.14;93602.19;5040506;28;20233;-73
2022/08/17 10:19:00;;;;;;;3.50;3.20;;;;;;;28.85;40.84;93599.25;5047459;28;20206;-72
2022/08/17 10:28:03;;;;;;;8.90;3.38;;;;;;;29.37;40.10;93602.69;5051387;28;20206;-73
2022/08/17 10:30:57;;;;;;;6.30;3.13;;;;;;;29.71;37.31;93596.72;5051577;28;20198;-73
2022/08/17 10:33:59;;;;;;;5.28;3.38;;;;;;;30.32;36.10;93593.41;5048786;28;20944;-70
2022/08/17 10:37:04;;;;;;;5.82;3.35;;;;;;;30.19;36.94;93592.06;5043377;28;20569;-73
2022/08/17 10:40:22;;;;;;;5.43;3.40;;;;;;;29.77;37.77;93590.91;5040413;28;20846;-76
2022/08/17 10:43:28;;;;;;;3.53;3.20;;;;;;;30.32;36.26;93604.97;5040325;28;20209;-73
2022/08/17 10:46:27;;;;;;;4.30;2.80;;;;;;;31.10;35.66;93599.94;5048888;28;20687;-72
2022/08/17 10:49:22;;;;;;;3.70;3.20;;;;;;;30.64;36.27;93601.84;5051469;28;20205;-73
2022/08/17 10:52:18;;;;;;;3.67;3.33;;;;;;;30.21;36.35;93612.31;5050865;28;20213;-73
2022/08/17 10:55:12;;;;;;;4.32;2.92;;;;;;;29.21;38.86;93607.06;5052267;28;20221;-72
2022/08/17 10:58:20;;;;;;;4.60;3.30;;;;;;;29.09;38.68;93601.34;5051576;28;20202;-72
2022/08/17 11:01:07;;;;;;;4.38;3.47;;;;;;;29.24;36.96;93608.50;5043131;28;20207;-70
2022/08/17 11:03:55;;;;;;;7.22;3.40;;;;;;;30.21;37.09;93601.47;5045908;28;20190;-75
2022/08/17 11:07:00;;;;;;;4.93;3.08;;;;;;;30.09;35.90;93608.06;5046791;28;20237;-72
2022/08/17 11:10:09;;;;;;;4.82;3.40;;;;;;;30.88;34.68;93610.25;5043300;28;20226;-72
2022/08/17 11:12:56;;;;;;;4.70;3.08;;;;;;;30.85;34.30;93600.19;5048355;28;20213;-74
2022/08/17 11:15:58;;;;;;;4.57;2.75;;;;;;;30.96;33.97;93603.69;5040362;28;20768;-71
2022/08/17 11:19:10;;;;;;;65.65;7.45;;;;;;;30.42;35.10;93619.38;5021995;28;20226;-72
2022/08/17 11:22:15;;;;;;;4.63;3.33;;;;;;;31.29;34.84;93604.06;5046728;28;20732;-73
2022/08/17 11:25:18;;;;;;;4.80;3.13;;;;;;;30.59;33.29;93602.63;5043948;28;20190;-72
2022/08/17 11:28:14;;;;;;;5.45;3.08;;;;;;;31.09;32.50;93604.28;5034234;28;20257;-72
2022/08/17 11:31:05;;;;;;;3.33;2.80;;;;;;;30.92;33.41;93613.09;5050466;28;20198;-72
2022/08/17 11:34:21;;;;;;;14.07;4.45;;;;;;;30.87;34.36;93603.03;5055589;28;20289;-74
2022/08/17 11:37:34;;;;;;;4.10;3.10;;;;;;;30.60;34.51;93615.63;5044934;28;20207;-71
2022/08/17 11:40:45;;;;;;;4.55;2.88;;;;;;;30.11;35.12;93622.50;5043215;28;20206;-72
2022/08/17 11:43:54;;;;;;;5.15;3.10;;;;;;;31.11;34.66;93615.84;5026498;28;20202;-72
2022/08/17 11:53:36;;;;;;;9.07;3.10;;;;;;;32.18;32.62;93608.66;5052529;28;20202;-74
2022/08/17 11:56:41;;;;;;;4.40;3.05;;;;;;;30.93;33.80;93605.88;5035662;28;20230;-70
2022/08/17 11:59:43;;;;;;;3.55;3.28;;;;;;;30.90;34.28;93613.16;5044850;28;20687;-73
2022/08/17 12:02:33;;;;;;;4.50;3.22;;;;;;;30.44;34.76;93622.22;5046974;28;20558;-74
2022/08/17 12:05:24;;;;;;;13.55;3.55;;;;;;;30.21;36.00;93613.03;5050815;28;20222;-72
2022/08/17 12:08:16;;;;;;;5.43;3.17;;;;;;;30.41;34.94;93612.16;5050262;28;20202;-72
2022/08/17 12:11:32;;;;;;;21.98;4.70;;;;;;;30.05;34.51;93608.09;5043002;28;20207;-72
2022/08/17 12:14:25;;;;;;;3.47;2.85;;;;;;;30.98;33.45;93611.63;5050297;28;20206;-73
2022/08/17 12:17:13;;;;;;;4.13;3.15;;;;;;;31.33;32.35;93615.59;5044615;28;20230;-74
2022/08/17 12:20:15;;;;;;;4.47;3.22;;;;;;;31.47;32.58;93600.94;5034510;28;20203;-73
2022/08/17 12:23:10;;;;;;;5.22;2.97;;;;;;;31.00;33.74;93588.44;5045740;28;20198;-73
2022/08/17 12:26:10;;;;;;;20.17;4.32;;;;;;;31.12;34.42;93585.44;5050096;28;20198;-73
2022/08/17 12:29:00;;;;;;;5.88;3.22;;;;;;;31.73;34.45;93585.38;5050039;28;20206;-72
2022/08/17 12:31:47;;;;;;;4.75;3.13;;;;;;;31.77;34.71;93578.81;5047508;28;20205;-71
2022/08/17 12:34:38;;;;;;;12.50;3.47;;;;;;;31.81;32.81;93590.34;5034651;28;20289;-72
2022/08/17 12:37:30;;;;;;;6.07;3.20;;;;;;;31.64;34.46;93584.06;5049449;28;20623;-72
2022/08/17 12:40:25;;;;;;;24.73;4.75;;;;;;;30.11;34.93;93598.66;5043388;28;20664;-73
2022/08/17 12:43:21;;;;;;;13.32;3.80;;;;;;;30.11;35.37;93592.88;5047613;28;20281;-73
2022/08/17 12:46:06;;;;;;;51.80;5.90;;;;;;;30.30;35.60;93602.13;5041038;28;20198;-71
2022/08/17 12:48:50;;;;;;;4.20;3.33;;;;;;;30.51;35.29;93598.34;5041902;28;20647;-72
2022/08/17 12:51:34;;;;;;;6.32;3.70;;;;;;;31.23;34.26;93589.66;5042091;28;20198;-75
2022/08/17 12:54:26;;;;;;;5.53;3.60;;;;;;;31.17;34.71;93589.72;5049775;28;20301;-72
2022/08/17 12:57:17;;;;;;;4.95;3.30;;;;;;;31.05;36.65;93587.69;5042117;28;20281;-72
2022/08/17 13:00:30;;;;;;;7.47;3.40;;;;;;;30.17;36.53;93595.72;5047078;28;20261;-71
2022/08/17 13:03:22;;;;;;;3.50;3.17;;;;;;;31.44;36.24;93584.31;5040037;28;20217;-72
2022/08/17 13:06:09;;;;;;;4.47;3.47;;;;;;;32.01;34.70;93582.09;5045520;28;20211;-72
2022/08/17 13:08:53;;;;;;;5.88;3.28;;;;;;;31.80;33.32;93588.91;5031138;28;20198;-70
2022/08/17 13:11:47;;;;;;;9.13;3.47;;;;;;;31.17;34.11;93586.84;5048689;28;20651;-71
2022/08/17 13:14:31;;;;;;;4.20;2.83;;;;;;;31.26;33.40;93583.09;5048851;28;20194;-72
2022/08/17 13:17:25;;;;;;;3.70;3.08;;;;;;;31.76;33.88;93591.88;5038212;28;20202;-72
2022/08/17 13:20:13;;;;;;;10.05;3.55;;;;;;;31.70;34.11;93581.81;5036152;28;20230;-72
2022/08/17 13:23:05;;;;;;;2.95;2.65;;;;;;;32.16;32.89;93588.38;5048880;28;20206;-74
2022/08/17 13:26:01;;;;;;;5.75;3.28;;;;;;;31.79;32.49;93581.72;5048787;28;20346;-72
2022/08/17 13:28:48;;;;;;;5.93;3.00;;;;;;;32.34;32.26;93582.28;5039033;28;20198;-72
2022/08/17 13:31:41;;;;;;;4.28;3.13;;;;;;;32.38;33.27;93584.44;5040088;28;20216;-72
2022/08/17 13:34:27;;;;;;;28.92;5.20;;;;;;;32.32;31.88;93575.81;5050378;28;20219;-75
2022/08/17 13:37:31;;;;;;;8.02;2.95;;;;;;;31.08;33.85;93568.13;5052339;28;20225;-72
2022/08/17 13:40:17;;;;;;;3.00;2.80;;;;;;;30.57;32.86;93583.09;5041329;28;20203;-71
2022/08/17 13:43:03;;;;;;;5.18;2.72;;;;;;;31.04;32.71;93573.94;5041902;28;20206;-74
2022/08/17 13:45:49;;;;;;;6.28;2.88;;;;;;;30.07;32.94;93576.28;5050661;28;20195;-74
2022/08/17 13:48:34;;;;;;;4.35;2.75;;;;;;;30.67;33.79;93573.63;5051230;28;20198;-72
2022/08/17 13:51:32;;;;;;;11.35;3.42;;;;;;;30.92;32.38;93563.91;5046988;28;20209;-75
2022/08/17 13:54:29;;;;;;;6.50;3.00;;;;;;;31.85;31.18;93561.34;5058645;28;20218;-71
2022/08/17 13:57:22;;;;;;;3.42;2.45;;;;;;;31.92;28.92;93556.84;5047431;28;20689;-72